Time;durP1;ratioP1;P1;durP2;ratioP2;P2;SDS_P1;SDS_P2;PMS_P1;PMS_P2;Temp;Humidity;BMP_temperature;BMP_pressure;BME280_temperature;BME280_humidity;BME280_pressure;Samples;Min_cycle;Max_cycle;Signal;HPM_P1;HPM_P2
2022/03/08 00:01:21;;;;;;;38.65;15.18;;;;;;;;;;5057165;28;20443;-59
2022/03/08 00:03:47;;;;;;;37.15;14.25;;;;;;;;;;5063131;28;20509;-59
2022/03/08 00:06:13;;;;;;;38.65;15.13;;;;;;;;;;5058209;28;20033;-61
2022/03/08 00:08:40;;;;;;;41.83;16.38;;;;;;;;;;5061354;28;20024;-59
2022/03/08 00:11:06;;;;;;;35.15;14.80;;;;;;;;;;5061412;28;20465;-59
2022/03/08 00:13:32;;;;;;;41.85;16.10;;;;;;;;;;5060276;28;20129;-59
2022/03/08 00:15:57;;;;;;;41.70;15.77;;;;;;;;;;5052835;28;20107;-59
2022/03/08 00:18:22;;;;;;;40.95;16.23;;;;;;;;;;5063057;28;20115;-59
2022/03/08 00:20:48;;;;;;;41.90;15.18;;;;;;;;;;5055373;28;20423;-58
2022/03/08 00:23:13;;;;;;;35.95;14.32;;;;;;;;;;5054985;28;20112;-58
2022/03/08 00:25:39;;;;;;;39.15;14.93;;;;;;;;;;5064170;28;20107;-59
2022/03/08 00:28:05;;;;;;;30.25;13.25;;;;;;;;;;5054523;28;20024;-59
2022/03/08 00:30:32;;;;;;;33.20;14.18;;;;;;;;;;5055966;28;20476;-59
2022/03/08 00:33:13;;;;;;;34.67;13.77;;;;;;;;;;5063074;28;20039;-59
2022/03/08 00:35:38;;;;;;;32.55;14.32;;;;;;;;;;5061135;28;20021;-59
2022/03/08 00:38:04;;;;;;;33.28;14.00;;;;;;;;;;5029483;28;20028;-59
2022/03/08 00:40:29;;;;;;;34.20;14.32;;;;;;;;;;5060042;28;20016;-59
2022/03/08 00:42:55;;;;;;;33.80;13.00;;;;;;;;;;5057459;28;20032;-59
2022/03/08 00:45:21;;;;;;;32.33;12.60;;;;;;;;;;5053425;28;20036;-59
2022/03/08 00:47:46;;;;;;;28.92;11.90;;;;;;;;;;5052552;28;20021;-58
2022/03/08 00:50:17;;;;;;;28.73;12.65;;;;;;;;;;5052763;28;20035;-59
2022/03/08 00:52:43;;;;;;;35.03;13.73;;;;;;;;;;5059468;28;20047;-58
2022/03/08 00:55:10;;;;;;;34.75;14.00;;;;;;;;;;5059052;28;20077;-59
2022/03/08 00:57:36;;;;;;;32.95;13.70;;;;;;;;;;5059468;28;20395;-59
2022/03/08 01:00:05;;;;;;;35.58;14.32;;;;;;;;;;5056268;28;20020;-59
2022/03/08 01:02:31;;;;;;;34.25;13.15;;;;;;;;;;5057848;28;20028;-60
2022/03/08 01:04:56;;;;;;;34.10;12.88;;;;;;;;;;5046259;28;20094;-59
2022/03/08 01:07:21;;;;;;;30.35;12.35;;;;;;;;;;5052373;28;20549;-59
2022/03/08 01:09:47;;;;;;;31.13;13.20;;;;;;;;;;5059195;28;20028;-59
2022/03/08 01:12:12;;;;;;;31.83;12.82;;;;;;;;;;5059931;28;20140;-60
2022/03/08 01:14:38;;;;;;;27.88;12.52;;;;;;;;;;5056695;28;20278;-59
2022/03/08 01:17:04;;;;;;;31.73;12.63;;;;;;;;;;5057908;28;20021;-59
2022/03/08 01:19:30;;;;;;;32.05;13.07;;;;;;;;;;5053169;28;20110;-59
2022/03/08 01:21:55;;;;;;;27.95;11.55;;;;;;;;;;5058534;28;20345;-59
2022/03/08 01:24:21;;;;;;;29.95;12.70;;;;;;;;;;5066675;28;20032;-58
2022/03/08 01:26:46;;;;;;;29.02;11.80;;;;;;;;;;5053004;28;20120;-59
2022/03/08 01:29:12;;;;;;;36.17;12.35;;;;;;;;;;5033161;28;20488;-59
2022/03/08 01:31:37;;;;;;;30.90;12.25;;;;;;;;;;5062559;28;21249;-59
2022/03/08 01:34:03;;;;;;;27.88;11.73;;;;;;;;;;5059470;28;20400;-59
2022/03/08 01:36:28;;;;;;;27.33;12.07;;;;;;;;;;5058715;28;20177;-58
2022/03/08 01:38:54;;;;;;;30.30;12.25;;;;;;;;;;5053263;28;20440;-59
2022/03/08 01:41:20;;;;;;;32.83;13.40;;;;;;;;;;5052728;28;20028;-58
2022/03/08 01:43:45;;;;;;;36.70;13.10;;;;;;;;;;5060780;28;20017;-59
2022/03/08 01:46:12;;;;;;;30.92;11.57;;;;;;;;;;5041300;28;20418;-58
2022/03/08 01:48:38;;;;;;;32.50;11.40;;;;;;;;;;5057069;28;20078;-59
2022/03/08 01:51:04;;;;;;;29.98;12.48;;;;;;;;;;5060477;28;20016;-59
2022/03/08 01:53:30;;;;;;;27.75;12.73;;;;;;;;;;5060596;28;20021;-59
2022/03/08 01:55:55;;;;;;;26.98;11.77;;;;;;;;;;5057338;28;20076;-59
2022/03/08 01:58:21;;;;;;;30.83;11.68;;;;;;;;;;5053334;28;20115;-59
2022/03/08 02:00:46;;;;;;;26.88;10.32;;;;;;;;;;5062813;28;20391;-59
2022/03/08 02:03:12;;;;;;;31.50;11.50;;;;;;;;;;5052456;28;20071;-59
2022/03/08 02:05:37;;;;;;;28.50;10.95;;;;;;;;;;5049688;28;20089;-59
2022/03/08 02:08:03;;;;;;;23.05;9.57;;;;;;;;;;5040585;28;20572;-58
2022/03/08 02:10:29;;;;;;;22.15;9.95;;;;;;;;;;5056526;28;20074;-59
2022/03/08 02:12:54;;;;;;;29.67;10.45;;;;;;;;;;5052604;28;20025;-59
2022/03/08 02:15:25;;;;;;;31.70;13.15;;;;;;;;;;5057630;28;20115;-59
2022/03/08 02:17:51;;;;;;;32.92;11.70;;;;;;;;;;5053236;28;20055;-59
2022/03/08 02:20:18;;;;;;;32.35;12.32;;;;;;;;;;5059406;28;20033;-59
2022/03/08 02:22:45;;;;;;;30.55;12.20;;;;;;;;;;5055397;28;20067;-58
2022/03/08 02:25:12;;;;;;;28.45;11.18;;;;;;;;;;5056280;28;20036;-59
2022/03/08 02:27:42;;;;;;;25.23;10.50;;;;;;;;;;5051597;28;20036;-58
2022/03/08 02:30:10;;;;;;;26.33;10.23;;;;;;;;;;5060150;28;20050;-59
2022/03/08 02:32:35;;;;;;;26.88;10.68;;;;;;;;;;5058007;28;20032;-59
2022/03/08 02:35:09;;;;;;;25.02;10.98;;;;;;;;;;5058641;28;20031;-60
2022/03/08 02:37:40;;;;;;;23.85;9.73;;;;;;;;;;5061425;28;20159;-59
2022/03/08 02:40:12;;;;;;;25.40;10.02;;;;;;;;;;5053663;28;20043;-59
2022/03/08 02:42:38;;;;;;;23.58;10.43;;;;;;;;;;5053553;28;20028;-59
2022/03/08 02:45:05;;;;;;;22.13;9.65;;;;;;;;;;5050138;28;20502;-59
2022/03/08 02:47:30;;;;;;;22.35;9.30;;;;;;;;;;5051293;28;20024;-58
2022/03/08 02:49:56;;;;;;;27.08;10.25;;;;;;;;;;5056480;28;20021;-59
2022/03/08 02:52:22;;;;;;;26.05;9.95;;;;;;;;;;5053639;28;20399;-58
2022/03/08 02:54:47;;;;;;;20.02;8.85;;;;;;;;;;5045666;28;20268;-58
2022/03/08 02:57:13;;;;;;;23.90;9.73;;;;;;;;;;5057837;28;20024;-59
2022/03/08 02:59:38;;;;;;;22.20;9.00;;;;;;;;;;5055629;28;20035;-58
2022/03/08 03:02:04;;;;;;;18.13;8.88;;;;;;;;;;5051909;28;20071;-59
2022/03/08 03:04:29;;;;;;;22.52;8.48;;;;;;;;;;5053353;28;20031;-59
2022/03/08 03:06:55;;;;;;;23.88;8.63;;;;;;;;;;5054910;28;20404;-60
2022/03/08 03:09:20;;;;;;;21.67;8.77;;;;;;;;;;5044517;28;20056;-59
2022/03/08 03:11:46;;;;;;;20.67;8.68;;;;;;;;;;5057150;28;20020;-59
2022/03/08 03:14:11;;;;;;;19.30;8.65;;;;;;;;;;5051880;28;20052;-59
2022/03/08 03:16:37;;;;;;;21.95;9.05;;;;;;;;;;5053127;28;20387;-58
2022/03/08 03:19:03;;;;;;;16.48;7.82;;;;;;;;;;5051931;28;20452;-58
2022/03/08 03:21:29;;;;;;;21.30;9.23;;;;;;;;;;5056208;28;20020;-59
2022/03/08 03:23:54;;;;;;;22.00;9.13;;;;;;;;;;5053764;28;20051;-59
2022/03/08 03:26:20;;;;;;;20.92;8.82;;;;;;;;;;5055096;28;20083;-58
2022/03/08 03:28:45;;;;;;;18.85;8.10;;;;;;;;;;5066793;28;20081;-59
2022/03/08 03:31:11;;;;;;;21.67;8.82;;;;;;;;;;5058445;28;20021;-59
2022/03/08 03:33:36;;;;;;;16.85;8.63;;;;;;;;;;5056022;28;20063;-59
2022/03/08 03:36:02;;;;;;;17.15;8.18;;;;;;;;;;5064038;28;20020;-58
2022/03/08 03:38:27;;;;;;;17.85;8.73;;;;;;;;;;5063653;28;20025;-58
2022/03/08 03:40:53;;;;;;;19.58;7.78;;;;;;;;;;5063358;28;20032;-59
2022/03/08 03:43:18;;;;;;;16.92;6.95;;;;;;;;;;5064583;28;20115;-59
2022/03/08 03:45:43;;;;;;;16.50;8.02;;;;;;;;;;5056233;28;20040;-58
2022/03/08 03:48:09;;;;;;;16.42;7.72;;;;;;;;;;5056387;28;20036;-59
2022/03/08 03:50:34;;;;;;;18.60;7.82;;;;;;;;;;5067488;28;20033;-59
2022/03/08 03:53:00;;;;;;;18.60;8.02;;;;;;;;;;5063850;28;20329;-59
2022/03/08 03:55:25;;;;;;;17.98;8.25;;;;;;;;;;5057140;28;20025;-58
2022/03/08 03:57:51;;;;;;;16.08;7.43;;;;;;;;;;5058473;28;20028;-59
2022/03/08 04:00:17;;;;;;;17.95;8.52;;;;;;;;;;5063601;28;20025;-58
2022/03/08 04:02:43;;;;;;;19.77;8.57;;;;;;;;;;5063438;28;20032;-58
2022/03/08 04:05:10;;;;;;;15.77;8.57;;;;;;;;;;5057483;28;20036;-59
2022/03/08 04:07:35;;;;;;;19.90;8.63;;;;;;;;;;5058628;28;20021;-59
2022/03/08 04:10:02;;;;;;;17.27;8.48;;;;;;;;;;5057469;28;20032;-59
2022/03/08 04:12:28;;;;;;;19.80;7.80;;;;;;;;;;5046985;28;20127;-59
2022/03/08 04:14:54;;;;;;;20.92;8.40;;;;;;;;;;5059200;28;20131;-59
2022/03/08 04:17:19;;;;;;;14.68;7.35;;;;;;;;;;5053999;28;20047;-59
2022/03/08 04:19:45;;;;;;;17.38;8.32;;;;;;;;;;5052065;28;20333;-59
2022/03/08 04:22:11;;;;;;;16.73;8.10;;;;;;;;;;5056354;28;20021;-58
2022/03/08 04:24:36;;;;;;;18.48;8.43;;;;;;;;;;5058258;28;20582;-59
2022/03/08 04:27:03;;;;;;;19.30;9.10;;;;;;;;;;5059565;28;20044;-58
2022/03/08 04:29:29;;;;;;;19.17;9.05;;;;;;;;;;5063093;28;20088;-59
2022/03/08 04:31:55;;;;;;;17.30;8.75;;;;;;;;;;5058483;28;20037;-58
2022/03/08 04:34:20;;;;;;;17.63;8.90;;;;;;;;;;5062700;28;20035;-59
2022/03/08 04:36:46;;;;;;;20.17;8.60;;;;;;;;;;5059994;28;20077;-59
2022/03/08 04:39:11;;;;;;;19.92;8.32;;;;;;;;;;5051821;28;20448;-59
2022/03/08 04:41:37;;;;;;;26.58;10.55;;;;;;;;;;5048562;28;20033;-59
2022/03/08 04:44:03;;;;;;;23.65;10.82;;;;;;;;;;5053564;28;20029;-59
2022/03/08 04:46:29;;;;;;;19.55;9.27;;;;;;;;;;5049203;28;20079;-58
2022/03/08 04:48:55;;;;;;;24.48;10.68;;;;;;;;;;5057369;28;20037;-59
2022/03/08 04:51:20;;;;;;;24.75;10.73;;;;;;;;;;5058508;28;20434;-58
2022/03/08 04:53:46;;;;;;;22.20;10.40;;;;;;;;;;5057051;28;20024;-59
2022/03/08 04:56:11;;;;;;;21.35;10.25;;;;;;;;;;5058439;28;20031;-59
2022/03/08 04:58:37;;;;;;;17.38;8.93;;;;;;;;;;5060191;28;20052;-58
2022/03/08 05:01:02;;;;;;;23.23;10.88;;;;;;;;;;5045266;28;20120;-59
2022/03/08 05:03:28;;;;;;;25.27;11.05;;;;;;;;;;5062438;28;20047;-58
2022/03/08 05:05:54;;;;;;;18.63;9.38;;;;;;;;;;5058899;28;20441;-58
2022/03/08 05:08:19;;;;;;;19.48;9.82;;;;;;;;;;5057899;28;20034;-59
2022/03/08 05:10:44;;;;;;;18.23;9.57;;;;;;;;;;5055413;28;20031;-59
2022/03/08 05:13:10;;;;;;;22.40;10.32;;;;;;;;;;5055097;28;20480;-58
2022/03/08 05:15:36;;;;;;;21.75;10.30;;;;;;;;;;5057961;28;20037;-59
2022/03/08 05:18:02;;;;;;;20.50;10.23;;;;;;;;;;5039838;28;20043;-59
2022/03/08 05:20:28;;;;;;;18.67;9.15;;;;;;;;;;5053684;28;20025;-59
2022/03/08 05:22:54;;;;;;;27.95;10.48;;;;;;;;;;5055640;28;20059;-58
2022/03/08 05:25:19;;;;;;;19.65;9.65;;;;;;;;;;5056984;28;20120;-59
2022/03/08 05:27:45;;;;;;;20.90;9.82;;;;;;;;;;5053678;28;20128;-58
2022/03/08 05:30:12;;;;;;;21.42;10.43;;;;;;;;;;5054620;28;20044;-59
2022/03/08 05:32:37;;;;;;;20.15;9.68;;;;;;;;;;5061043;28;20568;-59
2022/03/08 05:35:03;;;;;;;26.63;10.10;;;;;;;;;;5056919;28;20120;-59
2022/03/08 05:37:28;;;;;;;26.80;11.00;;;;;;;;;;5053778;28;20041;-58
2022/03/08 05:39:54;;;;;;;22.45;10.38;;;;;;;;;;5024761;28;20098;-59
2022/03/08 05:42:19;;;;;;;23.25;10.95;;;;;;;;;;5056684;28;20058;-59
2022/03/08 05:44:45;;;;;;;25.05;10.90;;;;;;;;;;5059756;28;20459;-59
2022/03/08 05:47:10;;;;;;;22.85;10.32;;;;;;;;;;5051649;28;20033;-57
2022/03/08 05:49:36;;;;;;;21.60;10.82;;;;;;;;;;5050901;28;20423;-58
2022/03/08 05:52:02;;;;;;;24.25;10.38;;;;;;;;;;5052535;28;20588;-59
2022/03/08 05:54:28;;;;;;;21.65;10.85;;;;;;;;;;5060779;28;20082;-59
2022/03/08 05:56:53;;;;;;;22.20;10.50;;;;;;;;;;5052156;28;20149;-58
2022/03/08 05:59:19;;;;;;;21.20;10.05;;;;;;;;;;5052743;28;20111;-58
2022/03/08 06:01:44;;;;;;;21.48;10.45;;;;;;;;;;5052438;28;20488;-59
2022/03/08 06:04:10;;;;;;;26.52;11.65;;;;;;;;;;5052204;28;20033;-59
2022/03/08 06:06:35;;;;;;;23.27;10.15;;;;;;;;;;5054620;28;20061;-59
2022/03/08 06:09:01;;;;;;;20.17;10.32;;;;;;;;;;5053492;28;20483;-59
2022/03/08 06:11:26;;;;;;;25.23;10.77;;;;;;;;;;5066993;28;20403;-60
2022/03/08 06:13:52;;;;;;;25.92;11.20;;;;;;;;;;5053058;28;20463;-60
2022/03/08 06:16:17;;;;;;;19.05;10.30;;;;;;;;;;5063113;28;20720;-61
2022/03/08 06:18:43;;;;;;;20.80;10.63;;;;;;;;;;5064110;28;20399;-59
2022/03/08 06:21:08;;;;;;;23.98;11.07;;;;;;;;;;5053697;28;20117;-59
2022/03/08 06:23:34;;;;;;;23.23;10.23;;;;;;;;;;5052222;28;20028;-59
2022/03/08 06:25:59;;;;;;;19.33;10.23;;;;;;;;;;5060746;28;20443;-60
2022/03/08 06:28:25;;;;;;;25.45;11.98;;;;;;;;;;5043031;28;20406;-60
2022/03/08 06:30:50;;;;;;;23.05;11.63;;;;;;;;;;5054858;28;20108;-59
2022/03/08 06:33:15;;;;;;;22.38;10.23;;;;;;;;;;5053025;28;20067;-61
2022/03/08 06:35:41;;;;;;;21.33;8.25;;;;;;;;;;5059431;28;20502;-57
2022/03/08 06:38:06;;;;;;;21.40;10.95;;;;;;;;;;5059493;28;20475;-57
2022/03/08 06:40:32;;;;;;;26.45;10.88;;;;;;;;;;5053194;28;20431;-60
2022/03/08 06:42:57;;;;;;;23.90;11.25;;;;;;;;;;5053522;28;20032;-60
2022/03/08 06:45:23;;;;;;;27.05;10.60;;;;;;;;;;5028442;28;20031;-60
2022/03/08 06:47:48;;;;;;;21.70;10.05;;;;;;;;;;5050962;28;20462;-61
2022/03/08 06:50:14;;;;;;;22.95;10.57;;;;;;;;;;5047462;28;20456;-60
2022/03/08 06:52:39;;;;;;;21.40;10.77;;;;;;;;;;5058290;28;20036;-60
2022/03/08 06:55:05;;;;;;;25.25;11.60;;;;;;;;;;5054952;28;20506;-60
2022/03/08 06:57:31;;;;;;;39.78;15.70;;;;;;;;;;5050053;28;20025;-60
2022/03/08 06:59:56;;;;;;;20.45;9.52;;;;;;;;;;5050400;28;20083;-59
2022/03/08 07:02:22;;;;;;;22.02;10.55;;;;;;;;;;5054812;28;20108;-60
2022/03/08 07:04:47;;;;;;;28.70;13.32;;;;;;;;;;5053836;28;20431;-59
2022/03/08 07:07:13;;;;;;;25.13;12.55;;;;;;;;;;5058691;28;20056;-60
2022/03/08 07:09:39;;;;;;;22.95;11.80;;;;;;;;;;5053805;28;20033;-59
2022/03/08 07:12:05;;;;;;;24.52;11.68;;;;;;;;;;5054448;28;20032;-59
2022/03/08 07:14:30;;;;;;;20.35;10.32;;;;;;;;;;5053110;28;20028;-60
2022/03/08 07:16:56;;;;;;;21.90;11.55;;;;;;;;;;5051801;28;20036;-59
2022/03/08 07:19:22;;;;;;;21.13;10.90;;;;;;;;;;5064916;28;20025;-59
2022/03/08 07:21:47;;;;;;;23.63;11.35;;;;;;;;;;5050411;28;21050;-59
2022/03/08 07:24:14;;;;;;;23.92;11.32;;;;;;;;;;5045909;28;20052;-60
2022/03/08 07:26:40;;;;;;;22.88;11.20;;;;;;;;;;5034362;28;20470;-60
2022/03/08 07:29:06;;;;;;;27.13;11.63;;;;;;;;;;5027859;28;20036;-59
2022/03/08 07:31:32;;;;;;;28.02;12.13;;;;;;;;;;5031016;28;20032;-61
2022/03/08 07:33:58;;;;;;;24.83;12.27;;;;;;;;;;5028055;28;20043;-60
2022/03/08 07:36:24;;;;;;;28.95;12.50;;;;;;;;;;5029850;28;20028;-60
2022/03/08 07:38:49;;;;;;;24.33;11.68;;;;;;;;;;5023160;28;20017;-60
2022/03/08 07:41:15;;;;;;;27.30;12.55;;;;;;;;;;5027658;28;20945;-58
2022/03/08 07:43:40;;;;;;;23.08;11.18;;;;;;;;;;5026170;28;20586;-60
2022/03/08 07:46:12;;;;;;;22.05;10.85;;;;;;;;;;5026244;28;20445;-60
2022/03/08 07:48:38;;;;;;;21.25;10.32;;;;;;;;;;5026776;28;20040;-60
2022/03/08 07:51:04;;;;;;;25.80;12.20;;;;;;;;;;5041515;28;20036;-59
2022/03/08 07:53:30;;;;;;;21.23;10.45;;;;;;;;;;5062303;28;20029;-59
2022/03/08 07:55:55;;;;;;;22.50;10.95;;;;;;;;;;5061938;28;20456;-60
2022/03/08 07:58:21;;;;;;;20.33;10.95;;;;;;;;;;5058225;28;20027;-60
2022/03/08 08:00:46;;;;;;;24.88;11.18;;;;;;;;;;5052868;28;20029;-59
2022/03/08 08:03:12;;;;;;;20.42;10.98;;;;;;;;;;5059413;28;20510;-59
2022/03/08 08:05:38;;;;;;;21.17;10.60;;;;;;;;;;5056749;28;20060;-60
2022/03/08 08:08:05;;;;;;;22.73;11.35;;;;;;;;;;5054296;28;20086;-60
2022/03/08 08:10:30;;;;;;;20.00;11.10;;;;;;;;;;5053990;28;20032;-60
2022/03/08 08:12:56;;;;;;;22.65;11.20;;;;;;;;;;5042166;28;20116;-60
2022/03/08 08:15:21;;;;;;;20.85;10.07;;;;;;;;;;5050847;28;20055;-60
2022/03/08 08:17:47;;;;;;;18.50;10.40;;;;;;;;;;5052894;28;20508;-60
2022/03/08 08:20:12;;;;;;;18.67;10.25;;;;;;;;;;5059320;28;20024;-60
2022/03/08 08:22:39;;;;;;;18.48;9.90;;;;;;;;;;5062165;28;20135;-60
2022/03/08 08:25:06;;;;;;;19.98;10.15;;;;;;;;;;5063059;28;20048;-60
2022/03/08 08:27:32;;;;;;;24.85;11.57;;;;;;;;;;5061473;28;20025;-59
2022/03/08 08:29:58;;;;;;;19.60;10.05;;;;;;;;;;5057633;28;20425;-59
2022/03/08 08:32:24;;;;;;;20.52;9.77;;;;;;;;;;5060571;28;20035;-59
2022/03/08 08:34:49;;;;;;;18.63;9.20;;;;;;;;;;5059521;28;20107;-60
2022/03/08 08:37:15;;;;;;;24.50;10.23;;;;;;;;;;5056214;28;20032;-60
2022/03/08 08:39:41;;;;;;;20.65;9.30;;;;;;;;;;5054696;28;20032;-60
2022/03/08 08:42:07;;;;;;;19.05;9.98;;;;;;;;;;5055633;28;20020;-61
2022/03/08 08:44:33;;;;;;;19.02;9.43;;;;;;;;;;5055990;28;20032;-60
2022/03/08 08:46:58;;;;;;;24.08;9.82;;;;;;;;;;5054920;28;20119;-60
2022/03/08 08:49:25;;;;;;;18.40;8.93;;;;;;;;;;5054313;28;20359;-60
2022/03/08 08:51:51;;;;;;;17.65;9.60;;;;;;;;;;5056531;28;20234;-60
2022/03/08 08:54:16;;;;;;;17.88;9.82;;;;;;;;;;5053093;28;20029;-60
2022/03/08 08:56:42;;;;;;;16.08;9.32;;;;;;;;;;5052212;28;20043;-60
2022/03/08 08:59:08;;;;;;;22.30;10.60;;;;;;;;;;5056893;28;20411;-59
2022/03/08 09:01:34;;;;;;;18.42;10.10;;;;;;;;;;5052806;28;20043;-59
2022/03/08 09:03:59;;;;;;;18.17;8.88;;;;;;;;;;5052562;28;20116;-60
2022/03/08 09:06:25;;;;;;;18.13;9.55;;;;;;;;;;5053810;28;20134;-59
2022/03/08 09:08:51;;;;;;;18.45;9.65;;;;;;;;;;5052710;28;20091;-59
2022/03/08 09:11:18;;;;;;;17.92;9.50;;;;;;;;;;5061135;28;20025;-60
2022/03/08 09:13:43;;;;;;;16.55;8.88;;;;;;;;;;5058985;28;20123;-59
2022/03/08 09:16:09;;;;;;;16.90;9.23;;;;;;;;;;5054079;28;20115;-59
2022/03/08 09:18:35;;;;;;;14.95;8.10;;;;;;;;;;5056629;28;20033;-59
2022/03/08 09:21:01;;;;;;;16.05;9.00;;;;;;;;;;5058803;28;20408;-60
2022/03/08 09:23:26;;;;;;;17.17;8.23;;;;;;;;;;5060821;28;20028;-60
2022/03/08 09:25:51;;;;;;;14.73;8.07;;;;;;;;;;5057737;28;20195;-60
2022/03/08 09:28:17;;;;;;;17.13;8.82;;;;;;;;;;5055567;28;20033;-60
2022/03/08 09:30:43;;;;;;;12.82;7.78;;;;;;;;;;5058415;28;20097;-60
2022/03/08 09:33:09;;;;;;;14.77;8.18;;;;;;;;;;5059376;28;20028;-60
2022/03/08 09:35:35;;;;;;;14.32;7.90;;;;;;;;;;5054718;28;20056;-60
2022/03/08 09:38:02;;;;;;;16.80;8.43;;;;;;;;;;5060615;28;20066;-60
2022/03/08 09:40:28;;;;;;;16.27;8.70;;;;;;;;;;5062203;28;20024;-59
2022/03/08 09:42:53;;;;;;;21.92;8.85;;;;;;;;;;5050252;28;20036;-59
2022/03/08 09:45:19;;;;;;;14.70;8.35;;;;;;;;;;5053328;28;20040;-60
2022/03/08 09:47:44;;;;;;;15.77;8.77;;;;;;;;;;5052524;28;20024;-59
2022/03/08 09:50:14;;;;;;;14.38;8.25;;;;;;;;;;5049457;28;20186;-60
2022/03/08 09:52:41;;;;;;;;;;;;;;;;;;5054063;28;20036;-60
2022/03/08 09:55:12;;;;;;;15.05;8.73;;;;;;;;;;5051306;28;20382;-60
2022/03/08 09:57:38;;;;;;;15.82;8.20;;;;;;;;;;5051014;28;20028;-60
2022/03/08 10:00:05;;;;;;;19.08;8.35;;;;;;;;;;5050408;28;20411;-60
2022/03/08 10:02:48;;;;;;;15.88;8.90;;;;;;;;;;5054132;28;20059;-60
2022/03/08 10:05:15;;;;;;;16.35;8.85;;;;;;;;;;5059126;28;20087;-60
2022/03/08 10:08:05;;;;;;;16.42;9.05;;;;;;;;;;5048064;28;20055;-59
2022/03/08 10:10:31;;;;;;;;;;;;;;;;;;5053468;28;20040;-60
2022/03/08 10:12:58;;;;;;;15.95;8.48;;;;;;;;;;5052697;28;19990;-60
2022/03/08 10:15:24;;;;;;;19.05;10.20;;;;;;;;;;5057348;28;20027;-59
2022/03/08 10:17:49;;;;;;;21.25;9.93;;;;;;;;;;5055902;28;20036;-59
2022/03/08 10:20:28;;;;;;;15.75;9.18;;;;;;;;;;5062989;28;20099;-61
2022/03/08 10:22:54;;;;;;;17.63;9.18;;;;;;;;;;5061485;28;20677;-59
2022/03/08 10:25:22;;;;;;;14.15;8.27;;;;;;;;;;5064846;28;20042;-59
2022/03/08 10:27:53;;;;;;;14.77;8.70;;;;;;;;;;5053137;28;20029;-61
2022/03/08 10:30:19;;;;;;;18.65;9.70;;;;;;;;;;5058744;28;20024;-60
2022/03/08 10:32:47;;;;;;;17.95;9.27;;;;;;;;;;5063201;28;20147;-59
2022/03/08 10:35:21;;;;;;;15.15;8.95;;;;;;;;;;5056125;28;20032;-59
2022/03/08 10:37:47;;;;;;;17.23;10.15;;;;;;;;;;5059180;28;20060;-60
2022/03/08 10:40:22;;;;;;;17.35;9.75;;;;;;;;;;5054848;28;20056;-59
2022/03/08 10:42:58;;;;;;;19.48;9.80;;;;;;;;;;5057384;28;20033;-60
2022/03/08 10:45:26;;;;;;;17.40;9.32;;;;;;;;;;5060255;28;20048;-61
2022/03/08 10:47:53;;;;;;;17.30;9.57;;;;;;;;;;5054660;28;20066;-61
2022/03/08 10:50:28;;;;;;;17.25;9.60;;;;;;;;;;5054789;28;20511;-61
2022/03/08 10:52:56;;;;;;;17.30;9.35;;;;;;;;;;5059501;28;20059;-61
2022/03/08 10:55:27;;;;;;;18.50;10.18;;;;;;;;;;5058813;28;20036;-60
2022/03/08 10:58:07;;;;;;;17.25;9.80;;;;;;;;;;5059982;28;20052;-59
2022/03/08 11:00:38;;;;;;;21.45;10.32;;;;;;;;;;5048857;28;20546;-59
2022/03/08 11:03:12;;;;;;;19.38;11.13;;;;;;;;;;5059095;28;20033;-60
2022/03/08 11:05:44;;;;;;;18.13;10.32;;;;;;;;;;5056586;28;20039;-61
2022/03/08 11:08:10;;;;;;;24.40;10.98;;;;;;;;;;5053906;28;20027;-59
2022/03/08 11:10:37;;;;;;;17.27;9.70;;;;;;;;;;5052170;28;20056;-60
2022/03/08 11:13:03;;;;;;;18.85;10.50;;;;;;;;;;5050983;28;20041;-60
2022/03/08 11:15:31;;;;;;;20.20;10.68;;;;;;;;;;5055225;28;20122;-60
2022/03/08 11:17:59;;;;;;;20.45;10.95;;;;;;;;;;5058279;28;20024;-59
2022/03/08 11:20:26;;;;;;;18.80;11.05;;;;;;;;;;5061094;28;20032;-60
2022/03/08 11:22:55;;;;;;;16.50;9.88;;;;;;;;;;5053802;28;20048;-60
2022/03/08 11:25:22;;;;;;;18.83;11.20;;;;;;;;;;5063631;28;20035;-60
2022/03/08 11:27:48;;;;;;;18.58;9.75;;;;;;;;;;5058551;28;20029;-60
2022/03/08 11:30:18;;;;;;;22.20;11.68;;;;;;;;;;5062279;28;20024;-60
2022/03/08 11:32:58;;;;;;;16.40;10.15;;;;;;;;;;5053801;28;20028;-60
2022/03/08 11:35:57;;;;;;;18.20;10.38;;;;;;;;;;5050991;28;20512;-60
2022/03/08 11:38:23;;;;;;;;;;;;;;;;;;5039458;28;20037;-60
2022/03/08 11:40:59;;;;;;;22.20;10.38;;;;;;;;;;5055955;28;19931;-60
2022/03/08 11:43:41;;;;;;;17.75;9.93;;;;;;;;;;5060481;28;20032;-61
2022/03/08 11:46:21;;;;;;;18.92;10.48;;;;;;;;;;5059908;28;20060;-60
2022/03/08 11:48:49;;;;;;;19.15;10.75;;;;;;;;;;5055706;28;20032;-60
2022/03/08 11:51:15;;;;;;;20.33;11.10;;;;;;;;;;5059004;28;20448;-60
2022/03/08 11:53:44;;;;;;;19.30;10.95;;;;;;;;;;5057101;28;20048;-62
2022/03/08 11:56:15;;;;;;;21.60;11.05;;;;;;;;;;5058159;28;20036;-60
2022/03/08 11:58:47;;;;;;;24.15;11.60;;;;;;;;;;5059605;28;20040;-61
2022/03/08 12:01:32;;;;;;;22.48;12.00;;;;;;;;;;5052448;28;20324;-61
2022/03/08 12:04:10;;;;;;;21.70;11.30;;;;;;;;;;5070504;28;20127;-61
2022/03/08 12:06:36;;;;;;;23.13;12.45;;;;;;;;;;5053577;28;20033;-60
2022/03/08 12:09:13;;;;;;;28.27;12.13;;;;;;;;;;5058955;28;20518;-60
2022/03/08 12:11:41;;;;;;;28.33;13.63;;;;;;;;;;5053292;28;20041;-60
2022/03/08 12:14:18;;;;;;;22.92;12.70;;;;;;;;;;5052017;28;20204;-60
2022/03/08 12:16:46;;;;;;;24.58;12.82;;;;;;;;;;5052899;28;20437;-61
2022/03/08 12:19:18;;;;;;;23.50;12.48;;;;;;;;;;5054630;28;20044;-60
2022/03/08 12:21:45;;;;;;;24.40;13.57;;;;;;;;;;5064426;28;20063;-61
2022/03/08 12:24:10;;;;;;;24.42;12.95;;;;;;;;;;5062555;28;20123;-61
2022/03/08 12:26:48;;;;;;;23.23;12.80;;;;;;;;;;5054218;28;20127;-62
2022/03/08 12:29:24;;;;;;;22.73;12.05;;;;;;;;;;5050635;28;20033;-61
2022/03/08 12:31:58;;;;;;;22.75;12.02;;;;;;;;;;5052176;28;20025;-60
2022/03/08 12:34:33;;;;;;;24.55;12.38;;;;;;;;;;5055157;28;20481;-61
2022/03/08 12:37:04;;;;;;;19.80;11.30;;;;;;;;;;5053008;28;20032;-61
2022/03/08 12:39:48;;;;;;;21.77;10.85;;;;;;;;;;5051487;28;20017;-61
2022/03/08 12:42:31;;;;;;;22.63;12.05;;;;;;;;;;5056497;28;20033;-61
2022/03/08 12:45:17;;;;;;;30.65;14.00;;;;;;;;;;5050266;28;20451;-61
2022/03/08 12:47:48;;;;;;;24.33;13.73;;;;;;;;;;5047592;28;20131;-61
2022/03/08 12:50:16;;;;;;;20.95;11.88;;;;;;;;;;5054047;28;20488;-61
2022/03/08 12:52:47;;;;;;;21.30;10.35;;;;;;;;;;5056145;28;20275;-61
2022/03/08 12:55:18;;;;;;;17.75;9.65;;;;;;;;;;5053052;28;20059;-60
2022/03/08 12:58:05;;;;;;;16.50;9.63;;;;;;;;;;5047299;28;20086;-61
2022/03/08 13:00:50;;;;;;;18.80;8.95;;;;;;;;;;5047738;28;20020;-61
2022/03/08 13:03:17;;;;;;;16.30;10.18;;;;;;;;;;5051626;28;20060;-60
2022/03/08 13:05:44;;;;;;;16.83;9.07;;;;;;;;;;5049814;28;20044;-60
2022/03/08 13:08:13;;;;;;;16.15;8.77;;;;;;;;;;5050071;28;20059;-61
2022/03/08 13:10:48;;;;;;;15.98;9.60;;;;;;;;;;5051173;28;20040;-61
2022/03/08 13:13:14;;;;;;;13.20;9.07;;;;;;;;;;5052000;28;20025;-60
2022/03/08 13:15:39;;;;;;;17.05;9.90;;;;;;;;;;5049488;28;20077;-60
2022/03/08 13:18:05;;;;;;;14.90;9.68;;;;;;;;;;5056147;28;20062;-60
2022/03/08 13:20:43;;;;;;;14.70;9.18;;;;;;;;;;5052231;28;20503;-61
2022/03/08 13:23:12;;;;;;;15.13;9.30;;;;;;;;;;5052993;28;20024;-61
2022/03/08 13:25:39;;;;;;;;;;;;;;;;;;5059767;28;20336;-60
2022/03/08 13:28:13;;;;;;;16.55;9.13;;;;;;;;;;5058708;28;19970;-59
2022/03/08 13:30:41;;;;;;;17.23;9.63;;;;;;;;;;5057548;28;20029;-61
2022/03/08 13:33:12;;;;;;;17.75;9.73;;;;;;;;;;5059549;28;20021;-60
2022/03/08 13:35:51;;;;;;;16.38;9.27;;;;;;;;;;5057920;28;20123;-61
2022/03/08 13:38:19;;;;;;;15.77;10.05;;;;;;;;;;5052111;28;20021;-60
2022/03/08 13:40:46;;;;;;;16.42;9.82;;;;;;;;;;5056746;28;20498;-61
2022/03/08 13:43:13;;;;;;;20.73;10.75;;;;;;;;;;5056632;28;20032;-61
2022/03/08 13:45:40;;;;;;;19.35;12.13;;;;;;;;;;5055383;28;20132;-61
2022/03/08 13:48:07;;;;;;;17.52;10.57;;;;;;;;;;5057419;28;20408;-61
2022/03/08 13:50:33;;;;;;;28.38;11.02;;;;;;;;;;5052633;28;20040;-62
2022/03/08 13:53:08;;;;;;;16.58;10.38;;;;;;;;;;5054252;28;20024;-61
2022/03/08 13:55:34;;;;;;;15.68;10.13;;;;;;;;;;5057632;28;20032;-61
2022/03/08 13:58:01;;;;;;;18.50;10.73;;;;;;;;;;5057166;28;20033;-63
2022/03/08 14:00:28;;;;;;;18.08;9.57;;;;;;;;;;5059865;28;20025;-62
2022/03/08 14:02:55;;;;;;;15.13;9.43;;;;;;;;;;5050723;28;20394;-61
2022/03/08 14:05:21;;;;;;;12.07;9.05;;;;;;;;;;5062804;28;20028;-61
2022/03/08 14:08:01;;;;;;;14.82;9.80;;;;;;;;;;5055658;28;20115;-60
2022/03/08 14:10:29;;;;;;;18.85;9.70;;;;;;;;;;5057393;28;20553;-61
2022/03/08 14:12:56;;;;;;;15.07;9.60;;;;;;;;;;5056163;28;20131;-61
2022/03/08 14:15:24;;;;;;;14.40;9.60;;;;;;;;;;5057713;28;20025;-61
2022/03/08 14:18:05;;;;;;;13.63;9.52;;;;;;;;;;5055484;28;20502;-61
2022/03/08 14:20:38;;;;;;;18.67;9.32;;;;;;;;;;5059540;28;20111;-61
2022/03/08 14:23:08;;;;;;;24.00;9.13;;;;;;;;;;5060022;28;20400;-61
2022/03/08 14:25:35;;;;;;;15.32;8.80;;;;;;;;;;5060777;28;20487;-61